PWSweather.com
Personal Weather Stations
Station Observations
KCOGRAND2
Redlands, Southcamp Road & Dakota Circle, Grand Junction, CO 81507

Redlands, Southcamp Road & Dakota CircleGrand Junction, CO 81507

Lat: 39.055, Lon: -108.637

Elevation: 4870

Station Type: RadioShack WX200

High Low Average
Temperature 77.9°F25.5°F 45.7°F7.6°F 64.5°F18.1°F
Dew Point 26.4°F-3.1°F 4.6°F-15.2°F 18.3°F-7.6°F
Winds 10.0 mph S16.1 mph S Calm Calm 4.5 mph 7.2 mph
Wind Gusts 16.8 mph27.0 mph -- 8.0 mph12.9 mph
Humidity 43% 11% 26%
Pressure 25.25 in855.10 in 25.07 in849.00 in -
Precipitation 0.00 in0.00 in - -
Hour Temp Dew Point Humidity Winds Wind Gusts Pressure Precip Precip Rate Daily Precip Total
12:04 AM 59.7°F15.4°C -5537.2°C - 4.0 mph SE6.4 kmh SE 6.9 mph11.1 kmh 25.19 in853.0 mb 0.00 in0.0 mm 0.00 in0.0 mm 0.00 in0.0 mm
12:09 AM 59.7°F15.4°C -5537.2°C - 4.0 mph SE6.4 kmh SE 7.8 mph12.6 kmh 25.19 in853.0 mb 0.00 in0.0 mm 0.00 in0.0 mm 0.00 in0.0 mm
12:14 AM 59.7°F15.4°C -5537.2°C - 4.0 mph ESE6.4 kmh ESE 5.4 mph8.7 kmh 25.19 in853.0 mb 0.00 in0.0 mm 0.00 in0.0 mm 0.00 in0.0 mm
12:19 AM 60.3°F15.7°C -5537.2°C - 4.0 mph ESE6.4 kmh ESE 9.2 mph14.8 kmh 25.19 in853.0 mb 0.00 in0.0 mm 0.00 in0.0 mm 0.00 in0.0 mm
12:24 AM 60.3°F15.7°C -5537.2°C - 5.0 mph ESE8.0 kmh ESE 7.8 mph12.6 kmh 25.19 in853.0 mb 0.00 in0.0 mm 0.00 in0.0 mm 0.00 in0.0 mm
12:29 AM 59.7°F15.4°C -5537.2°C - 3.0 mph ESE4.8 kmh ESE 5.8 mph9.3 kmh 25.19 in853.0 mb 0.00 in0.0 mm 0.00 in0.0 mm 0.00 in0.0 mm
12:34 AM 59.4°F15.2°C -5537.2°C - 1.0 mph E1.6 kmh E 3.6 mph5.8 kmh 25.19 in853.0 mb 0.00 in0.0 mm 0.00 in0.0 mm 0.00 in0.0 mm
12:39 AM 58.6°F14.8°C -5537.2°C - 2.0 mph E3.2 kmh E 4.0 mph6.4 kmh 25.19 in853.0 mb 0.00 in0.0 mm 0.00 in0.0 mm 0.00 in0.0 mm
12:44 AM 58.3°F14.6°C -5537.2°C - 3.0 mph E4.8 kmh E 6.9 mph11.1 kmh 25.19 in853.0 mb 0.00 in0.0 mm 0.00 in0.0 mm 0.00 in0.0 mm
12:49 AM 58.1°F14.5°C -5537.2°C - 3.0 mph E4.8 kmh E 6.3 mph10.1 kmh 25.19 in853.0 mb 0.00 in0.0 mm 0.00 in0.0 mm 0.00 in0.0 mm
12:54 AM 57.9°F14.4°C -5537.2°C - 3.0 mph E4.8 kmh E 6.7 mph10.8 kmh 25.19 in853.0 mb 0.00 in0.0 mm 0.00 in0.0 mm 0.00 in0.0 mm
12:59 AM 57.9°F14.4°C -5537.2°C - 4.0 mph E6.4 kmh E 5.4 mph8.7 kmh 25.19 in853.0 mb 0.00 in0.0 mm 0.00 in0.0 mm 0.00 in0.0 mm
01:04 AM 57.9°F14.4°C -5537.2°C - 4.0 mph E6.4 kmh E 6.7 mph10.8 kmh 25.19 in853.0 mb 0.00 in0.0 mm 0.00 in0.0 mm 0.00 in0.0 mm
01:09 AM 57.6°F14.2°C 5.4°F-14.8°C 12% 4.0 mph E6.4 kmh E 6.3 mph10.1 kmh 25.19 in853.0 mb 0.00 in0.0 mm 0.00 in0.0 mm 0.00 in0.0 mm
01:14 AM 57.4°F14.1°C 5.2°F-14.9°C 12% 2.0 mph E3.2 kmh E 4.0 mph6.4 kmh 25.19 in853.0 mb 0.00 in0.0 mm 0.00 in0.0 mm 0.00 in0.0 mm
01:19 AM 57.4°F14.1°C 5.2°F-14.9°C 12% 1.0 mph E1.6 kmh E 4.5 mph7.2 kmh 25.19 in853.0 mb 0.00 in0.0 mm 0.00 in0.0 mm 0.00 in0.0 mm
01:24 AM 57.0°F13.9°C 5.0°F-15.0°C 12% 1.0 mph ESE1.6 kmh ESE 3.6 mph5.8 kmh 25.19 in853.0 mb 0.00 in0.0 mm 0.00 in0.0 mm 0.00 in0.0 mm
01:29 AM 56.8°F13.8°C 4.8°F-15.1°C 12% 1.0 mph SE1.6 kmh SE 3.6 mph5.8 kmh 25.19 in853.0 mb 0.00 in0.0 mm 0.00 in0.0 mm 0.00 in0.0 mm
01:34 AM 56.7°F13.7°C 4.6°F-15.2°C 12% 1.0 mph SE1.6 kmh SE 4.5 mph7.2 kmh 25.19 in853.0 mb 0.00 in0.0 mm 0.00 in0.0 mm 0.00 in0.0 mm
01:39 AM 56.8°F13.8°C 4.8°F-15.1°C 12% 1.0 mph SE1.6 kmh SE 4.0 mph6.4 kmh 25.19 in853.0 mb 0.00 in0.0 mm 0.00 in0.0 mm 0.00 in0.0 mm
01:44 AM 57.2°F14.0°C 5.0°F-15.0°C 12% 2.0 mph ESE3.2 kmh ESE 5.8 mph9.3 kmh 25.19 in853.0 mb 0.00 in0.0 mm 0.00 in0.0 mm 0.00 in0.0 mm
01:49 AM 56.7°F13.7°C 4.6°F-15.2°C 12% 3.0 mph E4.8 kmh E 5.8 mph9.3 kmh 25.19 in853.0 mb 0.00 in0.0 mm 0.00 in0.0 mm 0.00 in0.0 mm
01:54 AM 57.7°F14.3°C 5.5°F-14.7°C 12% 3.0 mph ENE4.8 kmh ENE 7.8 mph12.6 kmh 25.19 in853.0 mb 0.00 in0.0 mm 0.00 in0.0 mm 0.00 in0.0 mm
01:59 AM 57.4°F14.1°C 5.2°F-14.9°C 12% 2.0 mph N3.2 kmh N 3.6 mph5.8 kmh 25.19 in853.0 mb 0.00 in0.0 mm 0.00 in0.0 mm 0.00 in0.0 mm
02:04 AM 55.6°F13.1°C 8.8°F-12.9°C 15% 2.0 mph N3.2 kmh N 4.5 mph7.2 kmh 25.19 in853.0 mb 0.00 in0.0 mm 0.00 in0.0 mm 0.00 in0.0 mm
02:09 AM 54.3°F12.4°C 11.7°F-11.3°C 18% 3.0 mph N4.8 kmh N 4.5 mph7.2 kmh 25.19 in853.0 mb 0.00 in0.0 mm 0.00 in0.0 mm 0.00 in0.0 mm
02:14 AM 53.6°F12.0°C 13.5°F-10.3°C 20% 2.0 mph N3.2 kmh N 3.6 mph5.8 kmh 25.19 in853.0 mb 0.00 in0.0 mm 0.00 in0.0 mm 0.00 in0.0 mm
02:20 AM 53.8°F12.1°C 16.9°F-8.4°C 23% 1.0 mph N1.6 kmh N 3.1 mph5.0 kmh 25.19 in853.0 mb 0.00 in0.0 mm 0.00 in0.0 mm 0.00 in0.0 mm
02:25 AM 53.8°F12.1°C 19.8°F-6.8°C 26% 1.0 mph N1.6 kmh N 3.6 mph5.8 kmh 25.19 in853.0 mb 0.00 in0.0 mm 0.00 in0.0 mm 0.00 in0.0 mm
02:30 AM 53.2°F11.8°C 19.2°F-7.1°C 26% 2.0 mph N3.2 kmh N 4.9 mph7.9 kmh 25.19 in853.0 mb 0.00 in0.0 mm 0.00 in0.0 mm 0.00 in0.0 mm
02:35 AM 54.3°F12.4°C 20.1°F-6.6°C 26% 4.0 mph N6.4 kmh N 5.4 mph8.7 kmh 25.19 in853.0 mb 0.00 in0.0 mm 0.00 in0.0 mm 0.00 in0.0 mm
02:40 AM 53.2°F11.8°C 19.2°F-7.1°C 26% 3.0 mph N4.8 kmh N 4.5 mph7.2 kmh 25.19 in853.0 mb 0.00 in0.0 mm 0.00 in0.0 mm 0.00 in0.0 mm
02:45 AM 52.3°F11.3°C 19.4°F-7.0°C 27% 2.0 mph N3.2 kmh N 4.0 mph6.4 kmh 25.19 in853.0 mb 0.00 in0.0 mm 0.00 in0.0 mm 0.00 in0.0 mm
02:50 AM 52.3°F11.3°C 19.4°F-7.0°C 27% 1.0 mph N1.6 kmh N 2.7 mph4.3 kmh 25.19 in853.0 mb 0.00 in0.0 mm 0.00 in0.0 mm 0.00 in0.0 mm
02:55 AM 52.3°F11.3°C 19.4°F-7.0°C 27% Calm Calm -- 25.19 in853.0 mb 0.00 in0.0 mm 0.00 in0.0 mm 0.00 in0.0 mm
03:00 AM 53.1°F11.7°C 19.0°F-7.2°C 26% 1.0 mph N1.6 kmh N 4.0 mph6.4 kmh 25.19 in853.0 mb 0.00 in0.0 mm 0.00 in0.0 mm 0.00 in0.0 mm
03:05 AM 54.1°F12.3°C 19.9°F-6.7°C 26% 2.0 mph N3.2 kmh N 3.6 mph5.8 kmh 25.19 in853.0 mb 0.00 in0.0 mm 0.00 in0.0 mm 0.00 in0.0 mm
03:10 AM 54.3°F12.4°C 20.1°F-6.6°C 26% 2.0 mph N3.2 kmh N 6.3 mph10.1 kmh 25.19 in853.0 mb 0.00 in0.0 mm 0.00 in0.0 mm 0.00 in0.0 mm
03:15 AM 54.5°F12.5°C 20.3°F-6.5°C 26% 3.0 mph NNW4.8 kmh NNW 6.3 mph10.1 kmh 25.19 in853.0 mb 0.00 in0.0 mm 0.00 in0.0 mm 0.00 in0.0 mm
03:20 AM 54.5°F12.5°C 19.4°F-7.0°C 25% 4.0 mph NW6.4 kmh NW 5.4 mph8.7 kmh 25.19 in853.0 mb 0.00 in0.0 mm 0.00 in0.0 mm 0.00 in0.0 mm
03:25 AM 55.0°F12.8°C 19.9°F-6.7°C 25% 4.0 mph NNW6.4 kmh NNW 6.3 mph10.1 kmh 25.19 in853.0 mb 0.00 in0.0 mm 0.00 in0.0 mm 0.00 in0.0 mm
03:30 AM 55.0°F12.8°C 19.9°F-6.7°C 25% 4.0 mph N6.4 kmh N 5.8 mph9.3 kmh 25.19 in853.0 mb 0.00 in0.0 mm 0.00 in0.0 mm 0.00 in0.0 mm
03:35 AM 54.0°F12.2°C 19.9°F-6.7°C 26% 3.0 mph N4.8 kmh N 4.0 mph6.4 kmh 25.19 in853.0 mb 0.00 in0.0 mm 0.00 in0.0 mm 0.00 in0.0 mm
03:40 AM 52.0°F11.1°C 19.0°F-7.2°C 27% 2.0 mph N3.2 kmh N 4.0 mph6.4 kmh 25.19 in853.0 mb 0.00 in0.0 mm 0.00 in0.0 mm 0.00 in0.0 mm
03:45 AM 50.7°F10.4°C 19.6°F-6.9°C 29% 1.0 mph N1.6 kmh N 3.1 mph5.0 kmh 25.19 in853.0 mb 0.00 in0.0 mm 0.00 in0.0 mm 0.00 in0.0 mm
03:50 AM 50.7°F10.4°C 19.6°F-6.9°C 29% Calm Calm 4.0 mph6.4 kmh 25.19 in853.0 mb 0.00 in0.0 mm 0.00 in0.0 mm 0.00 in0.0 mm
03:55 AM 52.2°F11.2°C 20.8°F-6.2°C 29% 1.0 mph 1.6 kmh 4.9 mph7.9 kmh 25.19 in853.0 mb 0.00 in0.0 mm 0.00 in0.0 mm 0.00 in0.0 mm
04:00 AM 52.5°F11.4°C 20.3°F-6.5°C 28% 3.0 mph N4.8 kmh N 6.3 mph10.1 kmh 25.19 in853.0 mb 0.00 in0.0 mm 0.00 in0.0 mm 0.00 in0.0 mm
04:05 AM 51.3°F10.7°C 20.1°F-6.6°C 29% 4.0 mph N6.4 kmh N 5.4 mph8.7 kmh 25.19 in853.0 mb 0.00 in0.0 mm 0.00 in0.0 mm 0.00 in0.0 mm
04:10 AM 50.7°F10.4°C 20.5°F-6.4°C 30% 4.0 mph N6.4 kmh N 5.4 mph8.7 kmh 25.19 in853.0 mb 0.00 in0.0 mm 0.00 in0.0 mm 0.00 in0.0 mm
04:15 AM 50.4°F10.2°C 21.6°F-5.8°C 32% 4.0 mph N6.4 kmh N 5.8 mph9.3 kmh 25.19 in853.0 mb 0.00 in0.0 mm 0.00 in0.0 mm 0.00 in0.0 mm
04:20 AM 51.4°F10.8°C 21.0°F-6.1°C 30% 5.0 mph NW8.0 kmh NW 9.2 mph14.8 kmh 25.19 in853.0 mb 0.00 in0.0 mm 0.00 in0.0 mm 0.00 in0.0 mm
04:25 AM 51.4°F10.8°C 21.0°F-6.1°C 30% 6.0 mph NW9.7 kmh NW 7.8 mph12.6 kmh 25.19 in853.0 mb 0.00 in0.0 mm 0.00 in0.0 mm 0.00 in0.0 mm
04:30 AM 53.4°F11.9°C 21.2°F-6.0°C 28% 6.0 mph NW9.7 kmh NW 8.3 mph13.4 kmh 25.22 in854.0 mb 0.00 in0.0 mm 0.00 in0.0 mm 0.00 in0.0 mm
04:35 AM 52.2°F11.2°C 20.1°F-6.6°C 28% 5.0 mph NW8.0 kmh NW 7.4 mph11.9 kmh 25.22 in854.0 mb 0.00 in0.0 mm 0.00 in0.0 mm 0.00 in0.0 mm
04:40 AM 51.4°F10.8°C 20.3°F-6.5°C 29% 5.0 mph N8.0 kmh N 8.3 mph13.4 kmh 25.22 in854.0 mb 0.00 in0.0 mm 0.00 in0.0 mm 0.00 in0.0 mm
04:45 AM 50.7°F10.4°C 20.5°F-6.4°C 30% 5.0 mph N8.0 kmh N 9.6 mph15.4 kmh 25.22 in854.0 mb 0.00 in0.0 mm 0.00 in0.0 mm 0.00 in0.0 mm
04:50 AM 49.3°F9.6°C 20.7°F-6.3°C 32% 4.0 mph NE6.4 kmh NE 5.8 mph9.3 kmh 25.22 in854.0 mb 0.00 in0.0 mm 0.00 in0.0 mm 0.00 in0.0 mm
04:55 AM 48.4°F9.1°C 22.6°F-5.2°C 36% 3.0 mph NE4.8 kmh NE 4.9 mph7.9 kmh 25.22 in854.0 mb 0.00 in0.0 mm 0.00 in0.0 mm 0.00 in0.0 mm
05:00 AM 47.7°F8.7°C 22.6°F-5.2°C 37% 1.0 mph ENE1.6 kmh ENE 4.0 mph6.4 kmh 25.22 in854.0 mb 0.00 in0.0 mm 0.00 in0.0 mm 0.00 in0.0 mm
05:05 AM 47.5°F8.6°C 23.2°F-4.9°C 38% 1.0 mph ENE1.6 kmh ENE 3.6 mph5.8 kmh 25.22 in854.0 mb 0.00 in0.0 mm 0.00 in0.0 mm 0.00 in0.0 mm
05:10 AM 47.7°F8.7°C 23.4°F-4.8°C 38% Calm Calm 4.0 mph6.4 kmh 25.22 in854.0 mb 0.00 in0.0 mm 0.00 in0.0 mm 0.00 in0.0 mm
05:15 AM 48.2°F9.0°C 23.7°F-4.6°C 38% Calm Calm -- 25.22 in854.0 mb 0.00 in0.0 mm 0.00 in0.0 mm 0.00 in0.0 mm
05:20 AM 48.6°F9.2°C 23.5°F-4.7°C 37% Calm Calm 4.0 mph6.4 kmh 25.22 in854.0 mb 0.00 in0.0 mm 0.00 in0.0 mm 0.00 in0.0 mm
05:25 AM 49.6°F9.8°C 23.7°F-4.6°C 36% 1.0 mph ENE1.6 kmh ENE 4.5 mph7.2 kmh 25.22 in854.0 mb 0.00 in0.0 mm 0.00 in0.0 mm 0.00 in0.0 mm
05:30 AM 50.0°F10.0°C 22.8°F-5.1°C 34% 1.0 mph ENE1.6 kmh ENE 4.5 mph7.2 kmh 25.22 in854.0 mb 0.00 in0.0 mm 0.00 in0.0 mm 0.00 in0.0 mm
05:35 AM 50.7°F10.4°C 23.4°F-4.8°C 34% 1.0 mph ENE1.6 kmh ENE 4.5 mph7.2 kmh 25.22 in854.0 mb 0.00 in0.0 mm 0.00 in0.0 mm 0.00 in0.0 mm
05:40 AM 50.2°F10.1°C 22.3°F-5.4°C 33% 2.0 mph ENE3.2 kmh ENE 4.5 mph7.2 kmh 25.22 in854.0 mb 0.00 in0.0 mm 0.00 in0.0 mm 0.00 in0.0 mm
05:45 AM 50.0°F10.0°C 22.1°F-5.5°C 33% 1.0 mph NE1.6 kmh NE 5.8 mph9.3 kmh 25.22 in854.0 mb 0.00 in0.0 mm 0.00 in0.0 mm 0.00 in0.0 mm
05:50 AM 50.2°F10.1°C 22.8°F-5.1°C 34% 2.0 mph NE3.2 kmh NE 6.7 mph10.8 kmh 25.22 in854.0 mb 0.00 in0.0 mm 0.00 in0.0 mm 0.00 in0.0 mm
05:55 AM 49.8°F9.9°C 22.6°F-5.2°C 34% 5.0 mph NW8.0 kmh NW 7.4 mph11.9 kmh 25.22 in854.0 mb 0.00 in0.0 mm 0.00 in0.0 mm 0.00 in0.0 mm
06:00 AM 49.8°F9.9°C 21.9°F-5.6°C 33% 5.0 mph NW8.0 kmh NW 6.9 mph11.1 kmh 25.22 in854.0 mb 0.00 in0.0 mm 0.00 in0.0 mm 0.00 in0.0 mm
06:05 AM 47.7°F8.7°C 22.6°F-5.2°C 37% 4.0 mph NNW6.4 kmh NNW 4.9 mph7.9 kmh 25.22 in854.0 mb 0.00 in0.0 mm 0.00 in0.0 mm 0.00 in0.0 mm
06:10 AM 46.6°F8.1°C 23.0°F-5.0°C 39% 3.0 mph N4.8 kmh N 4.9 mph7.9 kmh 25.22 in854.0 mb 0.00 in0.0 mm 0.00 in0.0 mm 0.00 in0.0 mm
06:15 AM 45.7°F7.6°C 23.4°F-4.8°C 41% 3.0 mph NNE4.8 kmh NNE 5.8 mph9.3 kmh 25.22 in854.0 mb 0.00 in0.0 mm 0.00 in0.0 mm 0.00 in0.0 mm
06:20 AM 45.9°F7.7°C 23.5°F-4.7°C 41% 3.0 mph NNE4.8 kmh NNE 5.4 mph8.7 kmh 25.22 in854.0 mb 0.00 in0.0 mm 0.00 in0.0 mm 0.00 in0.0 mm
06:25 AM 46.0°F7.8°C 24.3°F-4.3°C 42% 3.0 mph N4.8 kmh N 4.5 mph7.2 kmh 25.22 in854.0 mb 0.00 in0.0 mm 0.00 in0.0 mm 0.00 in0.0 mm
06:30 AM 46.2°F7.9°C 24.4°F-4.2°C 42% 3.0 mph N4.8 kmh N 4.9 mph7.9 kmh 25.22 in854.0 mb 0.00 in0.0 mm 0.00 in0.0 mm 0.00 in0.0 mm
06:35 AM 47.3°F8.5°C 24.3°F-4.3°C 40% 4.0 mph N6.4 kmh N 5.8 mph9.3 kmh 25.22 in854.0 mb 0.00 in0.0 mm 0.00 in0.0 mm 0.00 in0.0 mm
06:40 AM 48.4°F9.1°C 24.6°F-4.1°C 39% 4.0 mph NNW6.4 kmh NNW 6.3 mph10.1 kmh 25.22 in854.0 mb 0.00 in0.0 mm 0.00 in0.0 mm 0.00 in0.0 mm
06:45 AM 49.6°F9.8°C 24.4°F-4.2°C 37% 5.0 mph NW8.0 kmh NW 6.7 mph10.8 kmh 25.22 in854.0 mb 0.00 in0.0 mm 0.00 in0.0 mm 0.00 in0.0 mm
06:50 AM 48.7°F9.3°C 23.7°F-4.6°C 37% 4.0 mph NW6.4 kmh NW 5.8 mph9.3 kmh 25.22 in854.0 mb 0.00 in0.0 mm 0.00 in0.0 mm 0.00 in0.0 mm
06:55 AM 46.9°F8.3°C 23.4°F-4.8°C 39% 3.0 mph NW4.8 kmh NW 4.0 mph6.4 kmh 25.22 in854.0 mb 0.00 in0.0 mm 0.00 in0.0 mm 0.00 in0.0 mm
07:00 AM 46.0°F7.8°C 24.3°F-4.3°C 42% 2.0 mph NW3.2 kmh NW 4.9 mph7.9 kmh 25.25 in855.1 mb 0.00 in0.0 mm 0.00 in0.0 mm 0.00 in0.0 mm
07:05 AM 46.0°F7.8°C 24.8°F-4.0°C 43% 2.0 mph NNW3.2 kmh NNW 4.0 mph6.4 kmh 25.25 in855.1 mb 0.00 in0.0 mm 0.00 in0.0 mm 0.00 in0.0 mm
07:10 AM 47.3°F8.5°C 25.3°F-3.7°C 42% 2.0 mph N3.2 kmh N 5.4 mph8.7 kmh 25.25 in855.1 mb 0.00 in0.0 mm 0.00 in0.0 mm 0.00 in0.0 mm
07:15 AM 48.4°F9.1°C 25.7°F-3.5°C 41% 3.0 mph N4.8 kmh N 4.9 mph7.9 kmh 25.25 in855.1 mb 0.00 in0.0 mm 0.00 in0.0 mm 0.00 in0.0 mm
07:20 AM 51.3°F10.7°C 25.9°F-3.4°C 37% 2.0 mph NNE3.2 kmh NNE 4.9 mph7.9 kmh 25.25 in855.1 mb 0.00 in0.0 mm 0.00 in0.0 mm 0.00 in0.0 mm
07:25 AM 52.5°F11.4°C 26.4°F-3.1°C 36% 3.0 mph NNE4.8 kmh NNE 6.3 mph10.1 kmh 25.25 in855.1 mb 0.00 in0.0 mm 0.00 in0.0 mm 0.00 in0.0 mm
07:30 AM 54.1°F12.3°C 23.4°F-4.8°C 30% 4.0 mph NE6.4 kmh NE 9.2 mph14.8 kmh 25.25 in855.1 mb 0.00 in0.0 mm 0.00 in0.0 mm 0.00 in0.0 mm
07:35 AM 55.0°F12.8°C 21.7°F-5.7°C 27% 5.0 mph NNE8.0 kmh NNE 9.2 mph14.8 kmh 25.25 in855.1 mb 0.00 in0.0 mm 0.00 in0.0 mm 0.00 in0.0 mm
07:40 AM 55.2°F12.9°C 21.0°F-6.1°C 26% 6.0 mph NNE9.7 kmh NNE 8.3 mph13.4 kmh 25.25 in855.1 mb 0.00 in0.0 mm 0.00 in0.0 mm 0.00 in0.0 mm
07:45 AM 55.2°F12.9°C 19.9°F-6.7°C 25% 6.0 mph N9.7 kmh N 10.1 mph16.3 kmh 25.25 in855.1 mb 0.00 in0.0 mm 0.00 in0.0 mm 0.00 in0.0 mm
07:50 AM 54.5°F12.5°C 19.4°F-7.0°C 25% 8.0 mph NNW12.9 kmh NNW 11.6 mph18.7 kmh 25.25 in855.1 mb 0.00 in0.0 mm 0.00 in0.0 mm 0.00 in0.0 mm
07:55 AM 54.1°F12.3°C 19.9°F-6.7°C 26% 9.0 mph NW14.5 kmh NW 12.5 mph20.1 kmh 25.25 in855.1 mb 0.00 in0.0 mm 0.00 in0.0 mm 0.00 in0.0 mm
08:00 AM 54.3°F12.4°C 20.1°F-6.6°C 26% 8.0 mph NW12.9 kmh NW 11.6 mph18.7 kmh 25.25 in855.1 mb 0.00 in0.0 mm 0.00 in0.0 mm 0.00 in0.0 mm
08:05 AM 54.5°F12.5°C 20.3°F-6.5°C 26% 8.0 mph NW12.9 kmh NW 11.2 mph18.0 kmh 25.25 in855.1 mb 0.00 in0.0 mm 0.00 in0.0 mm 0.00 in0.0 mm
08:10 AM 55.6°F13.1°C 21.2°F-6.0°C 26% 8.0 mph NW12.9 kmh NW 11.6 mph18.7 kmh 25.25 in855.1 mb 0.00 in0.0 mm 0.00 in0.0 mm 0.00 in0.0 mm
08:15 AM 55.9°F13.3°C 21.6°F-5.8°C 26% 7.0 mph NW11.3 kmh NW 9.6 mph15.4 kmh 25.25 in855.1 mb 0.00 in0.0 mm 0.00 in0.0 mm 0.00 in0.0 mm
08:20 AM 56.5°F13.6°C 21.0°F-6.1°C 25% 6.0 mph NNW9.7 kmh NNW 8.7 mph14.0 kmh 25.25 in855.1 mb 0.00 in0.0 mm 0.00 in0.0 mm 0.00 in0.0 mm
08:25 AM 56.8°F13.8°C 21.4°F-5.9°C 25% 6.0 mph N9.7 kmh N 9.2 mph14.8 kmh 25.25 in855.1 mb 0.00 in0.0 mm 0.00 in0.0 mm 0.00 in0.0 mm
08:30 AM 56.5°F13.6°C 21.0°F-6.1°C 25% 7.0 mph NNW11.3 kmh NNW 10.1 mph16.3 kmh 25.25 in855.1 mb 0.00 in0.0 mm 0.00 in0.0 mm 0.00 in0.0 mm
08:35 AM 56.7°F13.7°C 20.3°F-6.5°C 24% 7.0 mph NNW11.3 kmh NNW 11.6 mph18.7 kmh 25.25 in855.1 mb 0.00 in0.0 mm 0.00 in0.0 mm 0.00 in0.0 mm
08:40 AM 57.2°F14.0°C 20.7°F-6.3°C 24% 8.0 mph NNW12.9 kmh NNW 10.5 mph16.9 kmh 25.25 in855.1 mb 0.00 in0.0 mm 0.00 in0.0 mm 0.00 in0.0 mm
08:45 AM 57.9°F14.4°C 21.4°F-5.9°C 24% 7.0 mph NNW11.3 kmh NNW 10.5 mph16.9 kmh 25.25 in855.1 mb 0.00 in0.0 mm 0.00 in0.0 mm 0.00 in0.0 mm
08:50 AM 58.1°F14.5°C 19.4°F-7.0°C 22% 8.0 mph NNW12.9 kmh NNW 13.0 mph20.9 kmh 25.25 in855.1 mb 0.00 in0.0 mm 0.00 in0.0 mm 0.00 in0.0 mm
08:55 AM 58.5°F14.7°C 16.3°F-8.7°C 19% 8.0 mph NW12.9 kmh NW 11.0 mph17.7 kmh 25.25 in855.1 mb 0.00 in0.0 mm 0.00 in0.0 mm 0.00 in0.0 mm
09:00 AM 59.2°F15.1°C 16.9°F-8.4°C 19% 7.0 mph NW11.3 kmh NW 11.6 mph18.7 kmh 25.25 in855.1 mb 0.00 in0.0 mm 0.00 in0.0 mm 0.00 in0.0 mm
09:05 AM 59.4°F15.2°C 17.1°F-8.3°C 19% 7.0 mph NW11.3 kmh NW 11.0 mph17.7 kmh 25.25 in855.1 mb 0.00 in0.0 mm 0.00 in0.0 mm 0.00 in0.0 mm
09:10 AM 59.0°F15.0°C 14.2°F-9.9°C 17% 7.0 mph NW11.3 kmh NW 12.1 mph19.5 kmh 25.25 in855.1 mb 0.00 in0.0 mm 0.00 in0.0 mm 0.00 in0.0 mm
09:15 AM 59.7°F15.4°C 14.9°F-9.5°C 17% 7.0 mph NW11.3 kmh NW 11.6 mph18.7 kmh 25.25 in855.1 mb 0.00 in0.0 mm 0.00 in0.0 mm 0.00 in0.0 mm
09:20 AM 59.7°F15.4°C 14.9°F-9.5°C 17% 6.0 mph NW9.7 kmh NW 9.2 mph14.8 kmh 25.25 in855.1 mb 0.00 in0.0 mm 0.00 in0.0 mm 0.00 in0.0 mm
09:25 AM 59.2°F15.1°C 10.0°F-12.2°C 14% 6.0 mph NW9.7 kmh NW 12.1 mph19.5 kmh 25.25 in855.1 mb 0.00 in0.0 mm 0.00 in0.0 mm 0.00 in0.0 mm
09:30 AM 59.5°F15.3°C 10.4°F-12.0°C 14% 7.0 mph NW11.3 kmh NW 11.2 mph18.0 kmh 25.25 in855.1 mb 0.00 in0.0 mm 0.00 in0.0 mm 0.00 in0.0 mm
09:35 AM 60.3°F15.7°C 10.9°F-11.7°C 14% 7.0 mph NW11.3 kmh NW 11.0 mph17.7 kmh 25.25 in855.1 mb 0.00 in0.0 mm 0.00 in0.0 mm 0.00 in0.0 mm
09:40 AM 60.8°F16.0°C 11.3°F-11.5°C 14% 6.0 mph NW9.7 kmh NW 10.1 mph16.3 kmh 25.25 in855.1 mb 0.00 in0.0 mm 0.00 in0.0 mm 0.00 in0.0 mm
09:45 AM 61.0°F16.1°C 11.5°F-11.4°C 14% 6.0 mph NW9.7 kmh NW 9.2 mph14.8 kmh 25.25 in855.1 mb 0.00 in0.0 mm 0.00 in0.0 mm 0.00 in0.0 mm
09:50 AM 61.0°F16.1°C 11.5°F-11.4°C 14% 6.0 mph NW9.7 kmh NW 8.7 mph14.0 kmh 25.25 in855.1 mb 0.00 in0.0 mm 0.00 in0.0 mm 0.00 in0.0 mm
09:55 AM 61.5°F16.4°C 11.8°F-11.2°C 14% 6.0 mph NW9.7 kmh NW 10.5 mph16.9 kmh 25.25 in855.1 mb 0.00 in0.0 mm 0.00 in0.0 mm 0.00 in0.0 mm
10:00 AM 62.6°F17.0°C 11.1°F-11.6°C 13% 7.0 mph N11.3 kmh N 11.2 mph18.0 kmh 25.25 in855.1 mb 0.00 in0.0 mm 0.00 in0.0 mm 0.00 in0.0 mm
10:05 AM 62.6°F17.0°C 11.1°F-11.6°C 13% 6.0 mph NNW9.7 kmh NNW 8.3 mph13.4 kmh 25.25 in855.1 mb 0.00 in0.0 mm 0.00 in0.0 mm 0.00 in0.0 mm
10:10 AM 63.0°F17.2°C 7.7°F-13.5°C 11% 6.0 mph N9.7 kmh N 11.0 mph17.7 kmh 25.25 in855.1 mb 0.00 in0.0 mm 0.00 in0.0 mm 0.00 in0.0 mm
10:15 AM 63.5°F17.5°C -5537.2°C - 7.0 mph N11.3 kmh N 11.6 mph18.7 kmh 25.25 in855.1 mb 0.00 in0.0 mm 0.00 in0.0 mm 0.00 in0.0 mm
10:20 AM 64.0°F17.8°C -5537.2°C - 6.0 mph N9.7 kmh N 8.7 mph14.0 kmh 25.25 in855.1 mb 0.00 in0.0 mm 0.00 in0.0 mm 0.00 in0.0 mm
10:25 AM 64.2°F17.9°C -5537.2°C - 6.0 mph NNE9.7 kmh NNE 10.5 mph16.9 kmh 25.25 in855.1 mb 0.00 in0.0 mm 0.00 in0.0 mm 0.00 in0.0 mm
10:30 AM 64.4°F18.0°C -5537.2°C - 6.0 mph N9.7 kmh N 9.2 mph14.8 kmh 25.25 in855.1 mb 0.00 in0.0 mm 0.00 in0.0 mm 0.00 in0.0 mm
10:35 AM 65.5°F18.6°C -5537.2°C - 5.0 mph N8.0 kmh N 8.3 mph13.4 kmh 25.25 in855.1 mb 0.00 in0.0 mm 0.00 in0.0 mm 0.00 in0.0 mm
10:40 AM 65.8°F18.8°C -5537.2°C - 4.0 mph N6.4 kmh N 8.7 mph14.0 kmh 25.22 in854.0 mb 0.00 in0.0 mm 0.00 in0.0 mm 0.00 in0.0 mm
10:45 AM 64.9°F18.3°C -5537.2°C - 5.0 mph NNW8.0 kmh NNW 9.6 mph15.4 kmh 25.22 in854.0 mb 0.00 in0.0 mm 0.00 in0.0 mm 0.00 in0.0 mm
10:50 AM 65.1°F18.4°C -5537.2°C - 6.0 mph NNW9.7 kmh NNW 8.7 mph14.0 kmh 25.22 in854.0 mb 0.00 in0.0 mm 0.00 in0.0 mm 0.00 in0.0 mm
10:55 AM 66.4°F19.1°C -5537.2°C - 6.0 mph NW9.7 kmh NW 10.5 mph16.9 kmh 25.22 in854.0 mb 0.00 in0.0 mm 0.00 in0.0 mm 0.00 in0.0 mm
11:00 AM 66.2°F19.0°C -5537.2°C - 5.0 mph N8.0 kmh N 8.7 mph14.0 kmh 25.22 in854.0 mb 0.00 in0.0 mm 0.00 in0.0 mm 0.00 in0.0 mm
11:05 AM 67.1°F19.5°C -5537.2°C - 4.0 mph NNW6.4 kmh NNW 6.9 mph11.1 kmh 25.22 in854.0 mb 0.00 in0.0 mm 0.00 in0.0 mm 0.00 in0.0 mm
11:10 AM 67.6°F19.8°C -5537.2°C - 4.0 mph NW6.4 kmh NW 8.7 mph14.0 kmh 25.22 in854.0 mb 0.00 in0.0 mm 0.00 in0.0 mm 0.00 in0.0 mm
11:15 AM 67.6°F19.8°C -5537.2°C - 5.0 mph N8.0 kmh N 8.7 mph14.0 kmh 25.22 in854.0 mb 0.00 in0.0 mm 0.00 in0.0 mm 0.00 in0.0 mm
11:20 AM 68.4°F20.2°C -5537.2°C - 4.0 mph N6.4 kmh N 8.3 mph13.4 kmh 25.22 in854.0 mb 0.00 in0.0 mm 0.00 in0.0 mm 0.00 in0.0 mm
11:25 AM 68.4°F20.2°C -5537.2°C - 4.0 mph NW6.4 kmh NW 9.2 mph14.8 kmh 25.22 in854.0 mb 0.00 in0.0 mm 0.00 in0.0 mm 0.00 in0.0 mm
11:30 AM 69.4°F20.8°C -5537.2°C - 5.0 mph NNW8.0 kmh NNW 10.1 mph16.3 kmh 25.22 in854.0 mb 0.00 in0.0 mm 0.00 in0.0 mm 0.00 in0.0 mm
11:35 AM 70.2°F21.2°C -5537.2°C - 4.0 mph NNW6.4 kmh NNW 7.8 mph12.6 kmh 25.22 in854.0 mb 0.00 in0.0 mm 0.00 in0.0 mm 0.00 in0.0 mm
11:40 AM 69.6°F20.9°C -5537.2°C - 4.0 mph NW6.4 kmh NW 8.3 mph13.4 kmh 25.22 in854.0 mb 0.00 in0.0 mm 0.00 in0.0 mm 0.00 in0.0 mm
11:45 AM 69.6°F20.9°C -5537.2°C - 5.0 mph NW8.0 kmh NW 6.9 mph11.1 kmh 25.22 in854.0 mb 0.00 in0.0 mm 0.00 in0.0 mm 0.00 in0.0 mm
11:50 AM 70.2°F21.2°C -5537.2°C - 4.0 mph N6.4 kmh N 8.3 mph13.4 kmh 25.22 in854.0 mb 0.00 in0.0 mm 0.00 in0.0 mm 0.00 in0.0 mm
11:55 AM 70.3°F21.3°C -5537.2°C - 4.0 mph N6.4 kmh N 8.3 mph13.4 kmh 25.22 in854.0 mb 0.00 in0.0 mm 0.00 in0.0 mm 0.00 in0.0 mm
12:00 PM 71.6°F22.0°C -5537.2°C - 4.0 mph NNW6.4 kmh NNW 8.3 mph13.4 kmh 25.22 in854.0 mb 0.00 in0.0 mm 0.00 in0.0 mm 0.00 in0.0 mm
12:05 PM 72.5°F22.5°C -5537.2°C - 4.0 mph NW6.4 kmh NW 6.9 mph11.1 kmh 25.22 in854.0 mb 0.00 in0.0 mm 0.00 in0.0 mm 0.00 in0.0 mm
12:10 PM 71.8°F22.1°C -5537.2°C - 4.0 mph WNW6.4 kmh WNW 9.2 mph14.8 kmh 25.19 in853.0 mb 0.00 in0.0 mm 0.00 in0.0 mm 0.00 in0.0 mm
12:15 PM 71.4°F21.9°C -5537.2°C - 5.0 mph NW8.0 kmh NW 10.1 mph16.3 kmh 25.19 in853.0 mb 0.00 in0.0 mm 0.00 in0.0 mm 0.00 in0.0 mm
12:20 PM 72.0°F22.2°C -5537.2°C - 4.0 mph NNW6.4 kmh NNW 5.8 mph9.3 kmh 25.19 in853.0 mb 0.00 in0.0 mm 0.00 in0.0 mm 0.00 in0.0 mm
12:25 PM 72.3°F22.4°C -5537.2°C - 4.0 mph NW6.4 kmh NW 10.1 mph16.3 kmh 25.19 in853.0 mb 0.00 in0.0 mm 0.00 in0.0 mm 0.00 in0.0 mm
12:30 PM 71.6°F22.0°C -5537.2°C - 5.0 mph W8.0 kmh W 7.8 mph12.6 kmh 25.19 in853.0 mb 0.00 in0.0 mm 0.00 in0.0 mm 0.00 in0.0 mm
12:35 PM 73.4°F23.0°C -5537.2°C - 3.0 mph W4.8 kmh W 4.5 mph7.2 kmh 25.19 in853.0 mb 0.00 in0.0 mm 0.00 in0.0 mm 0.00 in0.0 mm
12:41 PM 72.7°F22.6°C -5537.2°C - 2.0 mph WNW3.2 kmh WNW 6.3 mph10.1 kmh 25.19 in853.0 mb 0.00 in0.0 mm 0.00 in0.0 mm 0.00 in0.0 mm
12:46 PM 72.5°F22.5°C -5537.2°C - 4.0 mph NW6.4 kmh NW 7.4 mph11.9 kmh 25.19 in853.0 mb 0.00 in0.0 mm 0.00 in0.0 mm 0.00 in0.0 mm
12:51 PM 73.4°F23.0°C -5537.2°C - 4.0 mph WNW6.4 kmh WNW 6.7 mph10.8 kmh 25.19 in853.0 mb 0.00 in0.0 mm 0.00 in0.0 mm 0.00 in0.0 mm
12:56 PM 73.8°F23.2°C -5537.2°C - 3.0 mph WNW4.8 kmh WNW 6.7 mph10.8 kmh 25.19 in853.0 mb 0.00 in0.0 mm 0.00 in0.0 mm 0.00 in0.0 mm
01:01 PM 74.3°F23.5°C -5537.2°C - 4.0 mph W6.4 kmh W 11.0 mph17.7 kmh 25.19 in853.0 mb 0.00 in0.0 mm 0.00 in0.0 mm 0.00 in0.0 mm
01:06 PM 73.8°F23.2°C -5537.2°C - 6.0 mph SSW9.7 kmh SSW 12.1 mph19.5 kmh 25.19 in853.0 mb 0.00 in0.0 mm 0.00 in0.0 mm 0.00 in0.0 mm
01:11 PM 73.6°F23.1°C -5537.2°C - 7.0 mph S11.3 kmh S 9.6 mph15.4 kmh 25.19 in853.0 mb 0.00 in0.0 mm 0.00 in0.0 mm 0.00 in0.0 mm
01:16 PM 73.6°F23.1°C -5537.2°C - 6.0 mph S9.7 kmh S 11.2 mph18.0 kmh 25.19 in853.0 mb 0.00 in0.0 mm 0.00 in0.0 mm 0.00 in0.0 mm
01:21 PM 73.4°F23.0°C -5537.2°C - 6.0 mph S9.7 kmh S 9.6 mph15.4 kmh 25.19 in853.0 mb 0.00 in0.0 mm 0.00 in0.0 mm 0.00 in0.0 mm
01:26 PM 74.5°F23.6°C -5537.2°C - 7.0 mph SSW11.3 kmh SSW 15.2 mph24.5 kmh 25.19 in853.0 mb 0.00 in0.0 mm 0.00 in0.0 mm 0.00 in0.0 mm
01:31 PM 74.5°F23.6°C -5537.2°C - 8.0 mph S12.9 kmh S 11.2 mph18.0 kmh 25.19 in853.0 mb 0.00 in0.0 mm 0.00 in0.0 mm 0.00 in0.0 mm
01:36 PM 74.3°F23.5°C -5537.2°C - 7.0 mph S11.3 kmh S 11.2 mph18.0 kmh 25.19 in853.0 mb 0.00 in0.0 mm 0.00 in0.0 mm 0.00 in0.0 mm
01:41 PM 74.5°F23.6°C -5537.2°C - 8.0 mph S12.9 kmh S 12.5 mph20.1 kmh 25.16 in852.0 mb 0.00 in0.0 mm 0.00 in0.0 mm 0.00 in0.0 mm
01:46 PM 76.1°F24.5°C -5537.2°C - 8.0 mph S12.9 kmh S 14.3 mph23.0 kmh 25.16 in852.0 mb 0.00 in0.0 mm 0.00 in0.0 mm 0.00 in0.0 mm
01:51 PM 75.0°F23.9°C -5537.2°C - 8.0 mph S12.9 kmh S 13.4 mph21.6 kmh 25.16 in852.0 mb 0.00 in0.0 mm 0.00 in0.0 mm 0.00 in0.0 mm
01:56 PM 75.4°F24.1°C -5537.2°C - 8.0 mph SSW12.9 kmh SSW 15.4 mph24.8 kmh 25.16 in852.0 mb 0.00 in0.0 mm 0.00 in0.0 mm 0.00 in0.0 mm
02:01 PM 74.7°F23.7°C -5537.2°C - 7.0 mph SW11.3 kmh SW 13.0 mph20.9 kmh 25.16 in852.0 mb 0.00 in0.0 mm 0.00 in0.0 mm 0.00 in0.0 mm
02:06 PM 74.8°F23.8°C -5537.2°C - 8.0 mph SW12.9 kmh SW 14.3 mph23.0 kmh 25.16 in852.0 mb 0.00 in0.0 mm 0.00 in0.0 mm 0.00 in0.0 mm
02:11 PM 75.2°F24.0°C -5537.2°C - 8.0 mph SSW12.9 kmh SSW 12.5 mph20.1 kmh 25.16 in852.0 mb 0.00 in0.0 mm 0.00 in0.0 mm 0.00 in0.0 mm
02:16 PM 75.2°F24.0°C -5537.2°C - 8.0 mph SW12.9 kmh SW 13.4 mph21.6 kmh 25.16 in852.0 mb 0.00 in0.0 mm 0.00 in0.0 mm 0.00 in0.0 mm
02:21 PM 76.8°F24.9°C -5537.2°C - 9.0 mph SSW14.5 kmh SSW 15.4 mph24.8 kmh 25.16 in852.0 mb 0.00 in0.0 mm 0.00 in0.0 mm 0.00 in0.0 mm
02:26 PM 75.9°F24.4°C -5537.2°C - 9.0 mph SSW14.5 kmh SSW 14.8 mph23.8 kmh 25.16 in852.0 mb 0.00 in0.0 mm 0.00 in0.0 mm 0.00 in0.0 mm
02:31 PM 76.1°F24.5°C -5537.2°C - 9.0 mph S14.5 kmh S 15.2 mph24.5 kmh 25.16 in852.0 mb 0.00 in0.0 mm 0.00 in0.0 mm 0.00 in0.0 mm
02:36 PM 76.1°F24.5°C -5537.2°C - 10.0 mph S16.1 kmh S 15.9 mph25.6 kmh 25.16 in852.0 mb 0.00 in0.0 mm 0.00 in0.0 mm 0.00 in0.0 mm
02:41 PM 75.7°F24.3°C -5537.2°C - 9.0 mph S14.5 kmh S 14.3 mph23.0 kmh 25.16 in852.0 mb 0.00 in0.0 mm 0.00 in0.0 mm 0.00 in0.0 mm
02:46 PM 75.9°F24.4°C -5537.2°C - 6.0 mph S9.7 kmh S 13.4 mph21.6 kmh 25.16 in852.0 mb 0.00 in0.0 mm 0.00 in0.0 mm 0.00 in0.0 mm
02:51 PM 75.4°F24.1°C -5537.2°C - 6.0 mph SSW9.7 kmh SSW 11.2 mph18.0 kmh 25.16 in852.0 mb 0.00 in0.0 mm 0.00 in0.0 mm 0.00 in0.0 mm
02:56 PM 75.6°F24.2°C -5537.2°C - 7.0 mph SW11.3 kmh SW 13.9 mph22.4 kmh 25.13 in851.0 mb 0.00 in0.0 mm 0.00 in0.0 mm 0.00 in0.0 mm
03:01 PM 77.0°F25.0°C -5537.2°C - 8.0 mph S12.9 kmh S 11.6 mph18.7 kmh 25.13 in851.0 mb 0.00 in0.0 mm 0.00 in0.0 mm 0.00 in0.0 mm
03:06 PM 77.4°F25.2°C -5537.2°C - 7.0 mph S11.3 kmh S 11.2 mph18.0 kmh 25.13 in851.0 mb 0.00 in0.0 mm 0.00 in0.0 mm 0.00 in0.0 mm
03:11 PM 77.2°F25.1°C -5537.2°C - 8.0 mph S12.9 kmh S 14.3 mph23.0 kmh 25.13 in851.0 mb 0.00 in0.0 mm 0.00 in0.0 mm 0.00 in0.0 mm
03:16 PM 75.9°F24.4°C -5537.2°C - 8.0 mph SSW12.9 kmh SSW 13.0 mph20.9 kmh 25.13 in851.0 mb 0.00 in0.0 mm 0.00 in0.0 mm 0.00 in0.0 mm
03:21 PM 76.5°F24.7°C -5537.2°C - 8.0 mph SSW12.9 kmh SSW 14.8 mph23.8 kmh 25.13 in851.0 mb 0.00 in0.0 mm 0.00 in0.0 mm 0.00 in0.0 mm
03:26 PM 76.5°F24.7°C -5537.2°C - 8.0 mph S12.9 kmh S 13.4 mph21.6 kmh 25.13 in851.0 mb 0.00 in0.0 mm 0.00 in0.0 mm 0.00 in0.0 mm
03:31 PM 76.3°F24.6°C -5537.2°C - 8.0 mph SSW12.9 kmh SSW 12.5 mph20.1 kmh 25.13 in851.0 mb 0.00 in0.0 mm 0.00 in0.0 mm 0.00 in0.0 mm
03:36 PM 76.1°F24.5°C -5537.2°C - 8.0 mph SW12.9 kmh SW 16.8 mph27.0 kmh 25.13 in851.0 mb 0.00 in0.0 mm 0.00 in0.0 mm 0.00 in0.0 mm
03:41 PM 76.6°F24.8°C -5537.2°C - 9.0 mph SW14.5 kmh SW 15.4 mph24.8 kmh 25.13 in851.0 mb 0.00 in0.0 mm 0.00 in0.0 mm 0.00 in0.0 mm
03:46 PM 77.2°F25.1°C -5537.2°C - 10.0 mph SSW16.1 kmh SSW 13.9 mph22.4 kmh 25.13 in851.0 mb 0.00 in0.0 mm 0.00 in0.0 mm 0.00 in0.0 mm
03:51 PM 77.0°F25.0°C -5537.2°C - 10.0 mph S16.1 kmh S 15.2 mph24.5 kmh 25.13 in851.0 mb 0.00 in0.0 mm 0.00 in0.0 mm 0.00 in0.0 mm
03:56 PM 77.9°F25.5°C -5537.2°C - 9.0 mph S14.5 kmh S 13.9 mph22.4 kmh 25.13 in851.0 mb 0.00 in0.0 mm 0.00 in0.0 mm 0.00 in0.0 mm
04:01 PM 76.5°F24.7°C -5537.2°C - 9.0 mph S14.5 kmh S 15.9 mph25.6 kmh 25.13 in851.0 mb 0.00 in0.0 mm 0.00 in0.0 mm 0.00 in0.0 mm
04:06 PM 76.8°F24.9°C -5537.2°C - 9.0 mph SW14.5 kmh SW 16.3 mph26.2 kmh 25.13 in851.0 mb 0.00 in0.0 mm 0.00 in0.0 mm 0.00 in0.0 mm
04:11 PM 76.8°F24.9°C -5537.2°C - 10.0 mph SW16.1 kmh SW 15.4 mph24.8 kmh 25.10 in850.0 mb 0.00 in0.0 mm 0.00 in0.0 mm 0.00 in0.0 mm
04:16 PM 77.2°F25.1°C -5537.2°C - 10.0 mph SW16.1 kmh SW 15.4 mph24.8 kmh 25.10 in850.0 mb 0.00 in0.0 mm 0.00 in0.0 mm 0.00 in0.0 mm
04:21 PM 77.2°F25.1°C -5537.2°C - 9.0 mph SW14.5 kmh SW 12.1 mph19.5 kmh 25.10 in850.0 mb 0.00 in0.0 mm 0.00 in0.0 mm 0.00 in0.0 mm
04:26 PM 77.7°F25.4°C -5537.2°C - 8.0 mph SSW12.9 kmh SSW 13.0 mph20.9 kmh 25.10 in850.0 mb 0.00 in0.0 mm 0.00 in0.0 mm 0.00 in0.0 mm
04:31 PM 77.5°F25.3°C -5537.2°C - 8.0 mph S12.9 kmh S 15.2 mph24.5 kmh 25.10 in850.0 mb 0.00 in0.0 mm 0.00 in0.0 mm 0.00 in0.0 mm
04:36 PM 77.0°F25.0°C -5537.2°C - 7.0 mph S11.3 kmh S 11.2 mph18.0 kmh 25.10 in850.0 mb 0.00 in0.0 mm 0.00 in0.0 mm 0.00 in0.0 mm
04:41 PM 76.6°F24.8°C -5537.2°C - 7.0 mph SSW11.3 kmh SSW 13.9 mph22.4 kmh 25.10 in850.0 mb 0.00 in0.0 mm 0.00 in0.0 mm 0.00 in0.0 mm
04:46 PM 77.0°F25.0°C -5537.2°C - 7.0 mph SSW11.3 kmh SSW 11.2 mph18.0 kmh 25.10 in850.0 mb 0.00 in0.0 mm 0.00 in0.0 mm 0.00 in0.0 mm
04:51 PM 77.0°F25.0°C -5537.2°C - 7.0 mph S11.3 kmh S 12.1 mph19.5 kmh 25.10 in850.0 mb 0.00 in0.0 mm 0.00 in0.0 mm 0.00 in0.0 mm
04:56 PM 77.0°F25.0°C -5537.2°C - 7.0 mph SSW11.3 kmh SSW 12.1 mph19.5 kmh 25.10 in850.0 mb 0.00 in0.0 mm 0.00 in0.0 mm 0.00 in0.0 mm
05:01 PM 77.0°F25.0°C -5537.2°C - 6.0 mph SSW9.7 kmh SSW 11.6 mph18.7 kmh 25.10 in850.0 mb 0.00 in0.0 mm 0.00 in0.0 mm 0.00 in0.0 mm
05:06 PM 76.8°F24.9°C -5537.2°C - 6.0 mph SW9.7 kmh SW 9.6 mph15.4 kmh 25.10 in850.0 mb 0.00 in0.0 mm 0.00 in0.0 mm 0.00 in0.0 mm
05:11 PM 76.6°F24.8°C -5537.2°C - 6.0 mph SW9.7 kmh SW 11.2 mph18.0 kmh 25.10 in850.0 mb 0.00 in0.0 mm 0.00 in0.0 mm 0.00 in0.0 mm
05:16 PM 77.2°F25.1°C -5537.2°C - 7.0 mph SSW11.3 kmh SSW 11.2 mph18.0 kmh 25.10 in850.0 mb 0.00 in0.0 mm 0.00 in0.0 mm 0.00 in0.0 mm
05:21 PM 77.5°F25.3°C -5537.2°C - 8.0 mph S12.9 kmh S 12.1 mph19.5 kmh 25.10 in850.0 mb 0.00 in0.0 mm 0.00 in0.0 mm 0.00 in0.0 mm
05:26 PM 77.5°F25.3°C -5537.2°C - 7.0 mph S11.3 kmh S 10.1 mph16.3 kmh 25.10 in850.0 mb 0.00 in0.0 mm 0.00 in0.0 mm 0.00 in0.0 mm
05:31 PM 77.2°F25.1°C -5537.2°C - 6.0 mph S9.7 kmh S 9.2 mph14.8 kmh 25.10 in850.0 mb 0.00 in0.0 mm 0.00 in0.0 mm 0.00 in0.0 mm
05:36 PM 77.5°F25.3°C -5537.2°C - 6.0 mph S9.7 kmh S 8.7 mph14.0 kmh 25.10 in850.0 mb 0.00 in0.0 mm 0.00 in0.0 mm 0.00 in0.0 mm
05:41 PM 77.5°F25.3°C -5537.2°C - 6.0 mph SSE9.7 kmh SSE 11.2 mph18.0 kmh 25.07 in849.0 mb 0.00 in0.0 mm 0.00 in0.0 mm 0.00 in0.0 mm
05:46 PM 77.5°F25.3°C -5537.2°C - 7.0 mph SSE11.3 kmh SSE 10.1 mph16.3 kmh 25.07 in849.0 mb 0.00 in0.0 mm 0.00 in0.0 mm 0.00 in0.0 mm
05:51 PM 77.5°F25.3°C -5537.2°C - 6.0 mph SSE9.7 kmh SSE 10.1 mph16.3 kmh 25.07 in849.0 mb 0.00 in0.0 mm 0.00 in0.0 mm 0.00 in0.0 mm
05:56 PM 77.9°F25.5°C -5537.2°C - 4.0 mph SE6.4 kmh SE 7.4 mph11.9 kmh 25.07 in849.0 mb 0.00 in0.0 mm 0.00 in0.0 mm 0.00 in0.0 mm
06:01 PM 77.9°F25.5°C -5537.2°C - 4.0 mph SE6.4 kmh SE 10.1 mph16.3 kmh 25.07 in849.0 mb 0.00 in0.0 mm 0.00 in0.0 mm 0.00 in0.0 mm
06:06 PM 77.5°F25.3°C -5537.2°C - 5.0 mph SE8.0 kmh SE 9.2 mph14.8 kmh 25.07 in849.0 mb 0.00 in0.0 mm 0.00 in0.0 mm 0.00 in0.0 mm
06:11 PM 77.2°F25.1°C -5537.2°C - 5.0 mph S8.0 kmh S 8.3 mph13.4 kmh 25.07 in849.0 mb 0.00 in0.0 mm 0.00 in0.0 mm 0.00 in0.0 mm
06:16 PM 77.4°F25.2°C -5537.2°C - 5.0 mph S8.0 kmh S 6.9 mph11.1 kmh 25.07 in849.0 mb 0.00 in0.0 mm 0.00 in0.0 mm 0.00 in0.0 mm
06:21 PM 76.5°F24.7°C -5537.2°C - 6.0 mph SW9.7 kmh SW 9.2 mph14.8 kmh 25.07 in849.0 mb 0.00 in0.0 mm 0.00 in0.0 mm 0.00 in0.0 mm
06:26 PM 76.3°F24.6°C -5537.2°C - 6.0 mph WSW9.7 kmh WSW 8.7 mph14.0 kmh 25.07 in849.0 mb 0.00 in0.0 mm 0.00 in0.0 mm 0.00 in0.0 mm
06:31 PM 77.0°F25.0°C -5537.2°C - 5.0 mph SSW8.0 kmh SSW 6.9 mph11.1 kmh 25.07 in849.0 mb 0.00 in0.0 mm 0.00 in0.0 mm 0.00 in0.0 mm
06:36 PM 76.8°F24.9°C -5537.2°C - 3.0 mph S4.8 kmh S 4.5 mph7.2 kmh 25.07 in849.0 mb 0.00 in0.0 mm 0.00 in0.0 mm 0.00 in0.0 mm
06:41 PM 76.6°F24.8°C -5537.2°C - 2.0 mph SSW3.2 kmh SSW 6.7 mph10.8 kmh 25.07 in849.0 mb 0.00 in0.0 mm 0.00 in0.0 mm 0.00 in0.0 mm
06:46 PM 76.6°F24.8°C -5537.2°C - 4.0 mph WSW6.4 kmh WSW 7.4 mph11.9 kmh 25.07 in849.0 mb 0.00 in0.0 mm 0.00 in0.0 mm 0.00 in0.0 mm
06:51 PM 76.3°F24.6°C -5537.2°C - 5.0 mph WSW8.0 kmh WSW 7.4 mph11.9 kmh 25.07 in849.0 mb 0.00 in0.0 mm 0.00 in0.0 mm 0.00 in0.0 mm
06:56 PM 76.1°F24.5°C -5537.2°C - 3.0 mph WSW4.8 kmh WSW 4.5 mph7.2 kmh 25.07 in849.0 mb 0.00 in0.0 mm 0.00 in0.0 mm 0.00 in0.0 mm
07:01 PM 76.1°F24.5°C -5537.2°C - 1.0 mph WSW1.6 kmh WSW 3.1 mph5.0 kmh 25.07 in849.0 mb 0.00 in0.0 mm 0.00 in0.0 mm 0.00 in0.0 mm
07:06 PM 75.9°F24.4°C -5537.2°C - 2.0 mph WSW3.2 kmh WSW 6.7 mph10.8 kmh 25.07 in849.0 mb 0.00 in0.0 mm 0.00 in0.0 mm 0.00 in0.0 mm
07:11 PM 75.9°F24.4°C -5537.2°C - 3.0 mph WSW4.8 kmh WSW 4.5 mph7.2 kmh 25.07 in849.0 mb 0.00 in0.0 mm 0.00 in0.0 mm 0.00 in0.0 mm
07:16 PM 75.7°F24.3°C -5537.2°C - 3.0 mph SW4.8 kmh SW 7.8 mph12.6 kmh 25.07 in849.0 mb 0.00 in0.0 mm 0.00 in0.0 mm 0.00 in0.0 mm
07:21 PM 75.4°F24.1°C -5537.2°C - 4.0 mph SW6.4 kmh SW 6.7 mph10.8 kmh 25.07 in849.0 mb 0.00 in0.0 mm 0.00 in0.0 mm 0.00 in0.0 mm
07:26 PM 75.4°F24.1°C -5537.2°C - 4.0 mph SW6.4 kmh SW 5.8 mph9.3 kmh 25.07 in849.0 mb 0.00 in0.0 mm 0.00 in0.0 mm 0.00 in0.0 mm
07:31 PM 75.2°F24.0°C -5537.2°C - 4.0 mph WSW6.4 kmh WSW 5.8 mph9.3 kmh 25.07 in849.0 mb 0.00 in0.0 mm 0.00 in0.0 mm 0.00 in0.0 mm
07:36 PM 75.0°F23.9°C -5537.2°C - 4.0 mph WSW6.4 kmh WSW 5.4 mph8.7 kmh 25.07 in849.0 mb 0.00 in0.0 mm 0.00 in0.0 mm 0.00 in0.0 mm
07:41 PM 75.0°F23.9°C -5537.2°C - 2.0 mph SW3.2 kmh SW 3.6 mph5.8 kmh 25.07 in849.0 mb 0.00 in0.0 mm 0.00 in0.0 mm 0.00 in0.0 mm
07:46 PM 74.7°F23.7°C -5537.2°C - 2.0 mph SW3.2 kmh SW 5.4 mph8.7 kmh 25.07 in849.0 mb 0.00 in0.0 mm 0.00 in0.0 mm 0.00 in0.0 mm
07:51 PM 73.2°F22.9°C -5537.2°C - 3.0 mph SW4.8 kmh SW 5.8 mph9.3 kmh 25.07 in849.0 mb 0.00 in0.0 mm 0.00 in0.0 mm 0.00 in0.0 mm
07:56 PM 72.0°F22.2°C -5537.2°C - 3.0 mph SW4.8 kmh SW 3.1 mph5.0 kmh 25.07 in849.0 mb 0.00 in0.0 mm 0.00 in0.0 mm 0.00 in0.0 mm
08:01 PM 71.2°F21.8°C -5537.2°C - 1.0 mph SW1.6 kmh SW 3.1 mph5.0 kmh 25.07 in849.0 mb 0.00 in0.0 mm 0.00 in0.0 mm 0.00 in0.0 mm
08:06 PM 70.7°F21.5°C -5537.2°C - Calm Calm 3.1 mph5.0 kmh 25.07 in849.0 mb 0.00 in0.0 mm 0.00 in0.0 mm 0.00 in0.0 mm
08:11 PM 70.5°F21.4°C -5537.2°C - Calm Calm 4.5 mph7.2 kmh 25.07 in849.0 mb 0.00 in0.0 mm 0.00 in0.0 mm 0.00 in0.0 mm
08:16 PM 69.6°F20.9°C -5537.2°C - 1.0 mph SW1.6 kmh SW 3.6 mph5.8 kmh 25.07 in849.0 mb 0.00 in0.0 mm 0.00 in0.0 mm 0.00 in0.0 mm
08:21 PM 69.1°F20.6°C -5537.2°C - 1.0 mph SW1.6 kmh SW 4.0 mph6.4 kmh 25.07 in849.0 mb 0.00 in0.0 mm 0.00 in0.0 mm 0.00 in0.0 mm
08:26 PM 68.7°F20.4°C -5537.2°C - 2.0 mph SW3.2 kmh SW 4.5 mph7.2 kmh 25.07 in849.0 mb 0.00 in0.0 mm 0.00 in0.0 mm 0.00 in0.0 mm
08:31 PM 68.0°F20.0°C -5537.2°C - 1.0 mph SW1.6 kmh SW 2.7 mph4.3 kmh 25.07 in849.0 mb 0.00 in0.0 mm 0.00 in0.0 mm 0.00 in0.0 mm
08:36 PM 67.6°F19.8°C -5537.2°C - Calm Calm -- 25.07 in849.0 mb 0.00 in0.0 mm 0.00 in0.0 mm 0.00 in0.0 mm
08:41 PM 67.3°F19.6°C -5537.2°C - Calm Calm 2.7 mph4.3 kmh 25.07 in849.0 mb 0.00 in0.0 mm 0.00 in0.0 mm 0.00 in0.0 mm
08:46 PM 67.3°F19.6°C -5537.2°C - 1.0 mph SW1.6 kmh SW 4.5 mph7.2 kmh 25.07 in849.0 mb 0.00 in0.0 mm 0.00 in0.0 mm 0.00 in0.0 mm
08:51 PM 66.9°F19.4°C -5537.2°C - 1.0 mph SW1.6 kmh SW 2.7 mph4.3 kmh 25.07 in849.0 mb 0.00 in0.0 mm 0.00 in0.0 mm 0.00 in0.0 mm
08:56 PM 67.1°F19.5°C -5537.2°C - Calm Calm 3.1 mph5.0 kmh 25.07 in849.0 mb 0.00 in0.0 mm 0.00 in0.0 mm 0.00 in0.0 mm
09:01 PM 66.7°F19.3°C -5537.2°C - 1.0 mph SW1.6 kmh SW 3.1 mph5.0 kmh 25.07 in849.0 mb 0.00 in0.0 mm 0.00 in0.0 mm 0.00 in0.0 mm
09:06 PM 67.1°F19.5°C -5537.2°C - Calm Calm 4.0 mph6.4 kmh 25.07 in849.0 mb 0.00 in0.0 mm 0.00 in0.0 mm 0.00 in0.0 mm
09:11 PM 67.1°F19.5°C -5537.2°C - Calm Calm 3.6 mph5.8 kmh 25.07 in849.0 mb 0.00 in0.0 mm 0.00 in0.0 mm 0.00 in0.0 mm
09:16 PM 66.7°F19.3°C -5537.2°C - 1.0 mph SW1.6 kmh SW 4.9 mph7.9 kmh 25.07 in849.0 mb 0.00 in0.0 mm 0.00 in0.0 mm 0.00 in0.0 mm
09:22 PM 66.9°F19.4°C -5537.2°C - 2.0 mph SW3.2 kmh SW 4.9 mph7.9 kmh 25.07 in849.0 mb 0.00 in0.0 mm 0.00 in0.0 mm 0.00 in0.0 mm
09:27 PM 66.2°F19.0°C -5537.2°C - 3.0 mph S4.8 kmh S 5.8 mph9.3 kmh 25.07 in849.0 mb 0.00 in0.0 mm 0.00 in0.0 mm 0.00 in0.0 mm
09:32 PM 66.0°F18.9°C -5537.2°C - 3.0 mph SE4.8 kmh SE 6.3 mph10.1 kmh 25.07 in849.0 mb 0.00 in0.0 mm 0.00 in0.0 mm 0.00 in0.0 mm
09:37 PM 66.0°F18.9°C -5537.2°C - 3.0 mph ESE4.8 kmh ESE 7.8 mph12.6 kmh 25.07 in849.0 mb 0.00 in0.0 mm 0.00 in0.0 mm 0.00 in0.0 mm
09:42 PM 66.2°F19.0°C -5537.2°C - 5.0 mph E8.0 kmh E 8.3 mph13.4 kmh 25.07 in849.0 mb 0.00 in0.0 mm 0.00 in0.0 mm 0.00 in0.0 mm
09:47 PM 66.6°F19.2°C -5537.2°C - 5.0 mph ESE8.0 kmh ESE 8.3 mph13.4 kmh 25.07 in849.0 mb 0.00 in0.0 mm 0.00 in0.0 mm 0.00 in0.0 mm
09:52 PM 67.1°F19.5°C -5537.2°C - 4.0 mph ESE6.4 kmh ESE 10.1 mph16.3 kmh 25.07 in849.0 mb 0.00 in0.0 mm 0.00 in0.0 mm 0.00 in0.0 mm
09:57 PM 68.5°F20.3°C -5537.2°C - 6.0 mph E9.7 kmh E 8.7 mph14.0 kmh 25.07 in849.0 mb 0.00 in0.0 mm 0.00 in0.0 mm 0.00 in0.0 mm
10:02 PM 69.3°F20.7°C -5537.2°C - 7.0 mph ENE11.3 kmh ENE 9.6 mph15.4 kmh 25.07 in849.0 mb 0.00 in0.0 mm 0.00 in0.0 mm 0.00 in0.0 mm
10:07 PM 70.3°F21.3°C -5537.2°C - 7.0 mph ENE11.3 kmh ENE 13.0 mph20.9 kmh 25.07 in849.0 mb 0.00 in0.0 mm 0.00 in0.0 mm 0.00 in0.0 mm
10:12 PM 70.7°F21.5°C -5537.2°C - 8.0 mph ENE12.9 kmh ENE 13.9 mph22.4 kmh 25.10 in850.0 mb 0.00 in0.0 mm 0.00 in0.0 mm 0.00 in0.0 mm
10:17 PM 70.7°F21.5°C -5537.2°C - 8.0 mph ENE12.9 kmh ENE 11.0 mph17.7 kmh 25.10 in850.0 mb 0.00 in0.0 mm 0.00 in0.0 mm 0.00 in0.0 mm
10:22 PM 70.5°F21.4°C -5537.2°C - 8.0 mph ENE12.9 kmh ENE 10.1 mph16.3 kmh 25.10 in850.0 mb 0.00 in0.0 mm 0.00 in0.0 mm 0.00 in0.0 mm
10:27 PM 70.2°F21.2°C -5537.2°C - 6.0 mph ENE9.7 kmh ENE 7.4 mph11.9 kmh 25.10 in850.0 mb 0.00 in0.0 mm 0.00 in0.0 mm 0.00 in0.0 mm
10:32 PM 69.8°F21.0°C -5537.2°C - 4.0 mph E6.4 kmh E 5.4 mph8.7 kmh 25.10 in850.0 mb 0.00 in0.0 mm 0.00 in0.0 mm 0.00 in0.0 mm
10:37 PM 69.6°F20.9°C -5537.2°C - 2.0 mph E3.2 kmh E 4.5 mph7.2 kmh 25.10 in850.0 mb 0.00 in0.0 mm 0.00 in0.0 mm 0.00 in0.0 mm
10:42 PM 69.1°F20.6°C -5537.2°C - 1.0 mph E1.6 kmh E 3.6 mph5.8 kmh 25.10 in850.0 mb 0.00 in0.0 mm 0.00 in0.0 mm 0.00 in0.0 mm
10:47 PM 68.4°F20.2°C -5537.2°C - 2.0 mph ESE3.2 kmh ESE 4.9 mph7.9 kmh 25.10 in850.0 mb 0.00 in0.0 mm 0.00 in0.0 mm 0.00 in0.0 mm
10:52 PM 69.3°F20.7°C -5537.2°C - 4.0 mph SE6.4 kmh SE 5.8 mph9.3 kmh 25.10 in850.0 mb 0.00 in0.0 mm 0.00 in0.0 mm 0.00 in0.0 mm
10:57 PM 68.0°F20.0°C -5537.2°C - 4.0 mph S6.4 kmh S 6.7 mph10.8 kmh 25.10 in850.0 mb 0.00 in0.0 mm 0.00 in0.0 mm 0.00 in0.0 mm
11:02 PM 67.8°F19.9°C -5537.2°C - 4.0 mph W6.4 kmh W 6.7 mph10.8 kmh 25.10 in850.0 mb 0.00 in0.0 mm 0.00 in0.0 mm 0.00 in0.0 mm
11:07 PM 67.5°F19.7°C -5537.2°C - 4.0 mph NW6.4 kmh NW 5.8 mph9.3 kmh 25.10 in850.0 mb 0.00 in0.0 mm 0.00 in0.0 mm 0.00 in0.0 mm
11:12 PM 67.3°F19.6°C -5537.2°C - 4.0 mph NW6.4 kmh NW 5.4 mph8.7 kmh 25.10 in850.0 mb 0.00 in0.0 mm 0.00 in0.0 mm 0.00 in0.0 mm
11:17 PM 66.7°F19.3°C -5537.2°C - 3.0 mph NW4.8 kmh NW 3.6 mph5.8 kmh 25.10 in850.0 mb 0.00 in0.0 mm 0.00 in0.0 mm 0.00 in0.0 mm
11:22 PM 64.4°F18.0°C -5537.2°C - 2.0 mph NW3.2 kmh NW 6.3 mph10.1 kmh 25.10 in850.0 mb 0.00 in0.0 mm 0.00 in0.0 mm 0.00 in0.0 mm
11:27 PM 63.5°F17.5°C -5537.2°C - 3.0 mph W4.8 kmh W 5.8 mph9.3 kmh 25.10 in850.0 mb 0.00 in0.0 mm 0.00 in0.0 mm 0.00 in0.0 mm
11:32 PM 63.9°F17.7°C -5537.2°C - 3.0 mph WSW4.8 kmh WSW 4.5 mph7.2 kmh 25.10 in850.0 mb 0.00 in0.0 mm 0.00 in0.0 mm 0.00 in0.0 mm
11:37 PM 64.2°F17.9°C -5537.2°C - 2.0 mph W3.2 kmh W 4.0 mph6.4 kmh 25.10 in850.0 mb 0.00 in0.0 mm 0.00 in0.0 mm 0.00 in0.0 mm
11:42 PM 64.8°F18.2°C -5537.2°C - 3.0 mph W4.8 kmh W 5.4 mph8.7 kmh 25.10 in850.0 mb 0.00 in0.0 mm 0.00 in0.0 mm 0.00 in0.0 mm
11:47 PM 64.4°F18.0°C -5537.2°C - 4.0 mph NW6.4 kmh NW 4.9 mph7.9 kmh 25.10 in850.0 mb 0.00 in0.0 mm 0.00 in0.0 mm 0.00 in0.0 mm
11:52 PM 63.0°F17.2°C -5537.2°C - 4.0 mph NW6.4 kmh NW 5.8 mph9.3 kmh 25.10 in850.0 mb 0.00 in0.0 mm 0.00 in0.0 mm 0.00 in0.0 mm
11:57 PM 63.5°F17.5°C -5537.2°C - 3.0 mph NW4.8 kmh NW 6.3 mph10.1 kmh 25.10 in850.0 mb 0.00 in0.0 mm 0.00 in0.0 mm 0.00 in0.0 mm